createdAt,value
2023-04-13T00:00:35.304Z,7.80
2023-04-13T00:03:24.280Z,7.80
2023-04-13T00:05:53.804Z,7.80
2023-04-13T00:08:23.911Z,7.80
2023-04-13T00:11:00.493Z,7.80
2023-04-13T00:13:28.809Z,7.90
2023-04-13T00:15:57.471Z,7.90
2023-04-13T00:18:26.212Z,7.90
2023-04-13T00:20:54.516Z,7.80
2023-04-13T00:23:24.266Z,7.80
2023-04-13T00:25:52.971Z,7.70
2023-04-13T00:28:21.512Z,7.60
2023-04-13T00:30:50.097Z,7.60
2023-04-13T00:33:18.553Z,7.50
2023-04-13T00:35:47.012Z,7.50
2023-04-13T00:38:15.364Z,7.40
2023-04-13T00:40:45.126Z,7.50
2023-04-13T00:43:13.464Z,7.50
2023-04-13T00:45:41.964Z,7.40
2023-04-13T00:48:11.923Z,7.50
2023-04-13T00:50:40.801Z,7.50
2023-04-13T00:53:13.528Z,7.50
2023-04-13T00:55:43.178Z,7.50
2023-04-13T00:58:14.428Z,7.50
2023-04-13T01:00:43.626Z,7.60
2023-04-13T01:03:13.151Z,7.60
2023-04-13T01:06:05.350Z,7.60
2023-04-13T01:08:38.828Z,7.60
2023-04-13T01:11:14.837Z,7.60
2023-04-13T01:13:52.293Z,7.60
2023-04-13T01:16:23.357Z,7.60
2023-04-13T01:18:54.238Z,7.60
2023-04-13T01:21:26.244Z,7.60
2023-04-13T01:24:06.329Z,7.60
2023-04-13T01:26:45.871Z,7.70
2023-04-13T01:29:15.961Z,7.70
2023-04-13T01:31:44.683Z,7.70
2023-04-13T01:34:13.477Z,7.70
2023-04-13T01:36:43.766Z,7.70
2023-04-13T01:39:19.937Z,7.70
2023-04-13T01:41:48.318Z,7.70
2023-04-13T01:44:18.126Z,7.70
2023-04-13T01:46:54.778Z,7.70
2023-04-13T01:49:24.301Z,7.60
2023-04-13T01:51:56.492Z,7.60
2023-04-13T01:54:28.870Z,7.60
2023-04-13T01:57:00.393Z,7.60
2023-04-13T01:59:30.790Z,7.60
2023-04-13T02:01:59.845Z,7.70
2023-04-13T02:04:28.288Z,7.60
2023-04-13T02:06:56.684Z,7.60
2023-04-13T02:09:25.395Z,7.60
2023-04-13T02:11:54.174Z,7.60
2023-04-13T02:14:23.020Z,7.60
2023-04-13T02:16:52.940Z,7.60
2023-04-13T02:19:24.777Z,7.50
2023-04-13T02:21:53.387Z,7.50
2023-04-13T02:24:21.752Z,7.50
2023-04-13T02:26:51.032Z,7.40
2023-04-13T02:29:22.707Z,7.30
2023-04-13T02:31:52.571Z,7.20
2023-04-13T02:34:21.062Z,7.20
2023-04-13T02:36:50.134Z,7.10
2023-04-13T02:39:18.574Z,7.10
2023-04-13T02:41:47.543Z,7.00
2023-04-13T02:44:15.960Z,7.00
2023-04-13T02:46:44.245Z,6.90
2023-04-13T02:49:14.245Z,6.90
2023-04-13T02:51:42.615Z,6.80
2023-04-13T02:54:12.393Z,6.80
2023-04-13T02:56:40.849Z,6.90
2023-04-13T02:59:09.242Z,6.90
2023-04-13T03:01:40.100Z,6.90
2023-04-13T03:04:10.050Z,6.90
2023-04-13T03:06:44.293Z,6.90
2023-04-13T03:09:14.334Z,6.90
2023-04-13T03:11:42.700Z,6.80
2023-04-13T03:14:13.277Z,6.80
2023-04-13T03:16:41.927Z,6.80
2023-04-13T03:19:10.359Z,6.80
2023-04-13T03:21:38.659Z,6.70
2023-04-13T03:24:09.525Z,6.80
2023-04-13T03:26:37.919Z,6.80
2023-04-13T03:29:07.058Z,6.80
2023-04-13T03:31:35.589Z,6.80
2023-04-13T03:34:04.185Z,6.70
2023-04-13T03:36:32.933Z,6.70
2023-04-13T03:39:02.006Z,6.70
2023-04-13T03:41:31.889Z,6.60
2023-04-13T03:44:00.627Z,6.60
2023-04-13T03:46:32.113Z,6.50
2023-04-13T03:49:00.620Z,6.50
2023-04-13T03:51:28.984Z,6.50
2023-04-13T03:53:57.638Z,6.60
2023-04-13T03:56:26.730Z,6.60
2023-04-13T03:58:56.841Z,6.80
2023-04-13T04:01:28.414Z,6.80
2023-04-13T04:03:58.202Z,6.90
2023-04-13T04:06:28.404Z,6.90
2023-04-13T04:08:56.815Z,7.00
2023-04-13T04:11:25.175Z,7.00
2023-04-13T04:13:53.539Z,7.10
2023-04-13T04:16:23.287Z,7.10
2023-04-13T04:18:54.306Z,7.20
2023-04-13T04:21:22.855Z,7.10
2023-04-13T04:23:52.270Z,7.10
2023-04-13T04:26:25.854Z,7.00
2023-04-13T04:29:02.100Z,7.00
2023-04-13T04:31:37.296Z,6.90
2023-04-13T04:34:06.123Z,6.90
2023-04-13T04:36:34.541Z,6.90
2023-04-13T04:39:04.647Z,6.90
2023-04-13T04:41:33.046Z,7.00
2023-04-13T04:44:02.836Z,7.10
2023-04-13T04:46:32.904Z,7.20
2023-04-13T04:49:01.685Z,7.20
2023-04-13T04:51:30.039Z,7.30
2023-04-13T04:54:01.615Z,7.40
2023-04-13T04:56:30.187Z,7.50
2023-04-13T04:58:58.769Z,7.50
2023-04-13T05:01:27.461Z,7.50
2023-04-13T05:03:57.312Z,7.50
2023-04-13T06:33:45.334Z,7.50
2023-04-13T06:36:13.733Z,8.70
2023-04-13T06:38:42.046Z,8.80
2023-04-13T06:41:13.240Z,8.90
2023-04-13T06:43:42.917Z,8.90
2023-04-13T06:46:11.700Z,9.10
2023-04-13T06:48:40.250Z,9.10
2023-04-13T06:51:08.916Z,9.20
2023-04-13T06:53:37.263Z,9.20
2023-04-13T06:56:06.398Z,9.40
2023-04-13T07:01:04.891Z,9.40
2023-04-13T07:03:34.082Z,9.50
2023-04-13T07:06:02.751Z,9.40
2023-04-13T07:08:32.226Z,9.40
2023-04-13T07:11:00.587Z,9.40
2023-04-13T07:13:29.118Z,9.30
2023-04-13T07:15:57.454Z,9.40
2023-04-13T07:18:27.243Z,9.30
2023-04-13T07:20:56.000Z,9.30
2023-04-13T07:23:24.413Z,9.30
2023-04-13T07:25:52.966Z,9.40
2023-04-13T07:28:24.264Z,9.50
2023-04-13T07:30:53.638Z,9.60
2023-04-13T07:33:22.264Z,9.70
2023-04-13T07:35:54.810Z,9.70
2023-04-13T07:38:23.449Z,9.90
2023-04-13T07:40:51.928Z,9.90
2023-04-13T07:43:20.757Z,9.90
2023-04-13T07:45:49.391Z,9.90
2023-04-13T07:50:47.241Z,9.90
2023-04-13T07:55:46.051Z,10.20
2023-04-13T07:58:14.348Z,10.20
2023-04-13T08:00:42.764Z,10.30
2023-04-13T08:03:11.436Z,10.50
2023-04-13T08:05:39.910Z,10.50
2023-04-13T08:08:08.315Z,10.50
2023-04-13T08:10:38.672Z,10.50
2023-04-13T08:13:07.027Z,10.60
2023-04-13T08:15:35.435Z,10.80
2023-04-13T08:18:04.089Z,10.90
2023-04-13T08:20:33.846Z,10.80
2023-04-13T08:23:02.312Z,10.80
2023-04-13T08:25:30.726Z,10.60
2023-04-13T08:28:01.358Z,10.60
2023-04-13T08:30:33.191Z,10.60
2023-04-13T08:33:02.104Z,10.50
2023-04-13T08:35:31.028Z,10.40
2023-04-13T08:37:59.542Z,10.50
2023-04-13T08:40:27.975Z,10.60
2023-04-13T08:42:56.989Z,11.00
2023-04-13T08:45:28.355Z,11.20
2023-04-13T08:47:57.346Z,11.50
2023-04-13T08:50:27.539Z,11.70
2023-04-13T08:55:26.467Z,12.00
2023-04-13T08:57:59.025Z,11.90
2023-04-13T09:00:30.071Z,11.70
2023-04-13T09:03:06.663Z,11.80
2023-04-13T09:05:41.680Z,11.60
2023-04-13T09:08:13.715Z,11.50
2023-04-13T09:13:11.231Z,12.10
2023-04-13T09:15:41.841Z,13.30
2023-04-13T09:18:12.773Z,13.40
2023-04-13T09:20:41.355Z,13.50
2023-04-13T09:23:16.519Z,13.80
2023-04-13T09:25:47.985Z,13.70
2023-04-13T09:28:19.981Z,13.60
2023-04-13T09:45:55.393Z,14.10
2023-04-13T09:48:24.412Z,12.40
2023-04-13T09:51:07.283Z,12.80
2023-04-13T11:22:24.045Z,13.70
2023-04-13T11:27:23.237Z,15.10
2023-04-13T11:29:59.124Z,16.90
2023-04-13T11:35:09.261Z,16.80
2023-04-13T11:37:38.576Z,17.50
2023-04-13T11:40:14.642Z,17.50
2023-04-13T11:42:45.144Z,16.90
2023-04-13T11:45:15.793Z,17.00
2023-04-13T11:47:45.349Z,17.00
2023-04-13T11:50:16.672Z,16.70
2023-04-13T11:52:46.613Z,16.80
2023-04-13T11:55:23.201Z,16.70
2023-04-13T11:57:53.462Z,16.50
2023-04-13T12:00:26.157Z,16.30
2023-04-13T12:05:30.349Z,16.70
2023-04-13T12:08:00.809Z,17.10
2023-04-13T12:10:40.754Z,17.40
2023-04-13T12:16:06.167Z,16.70
2023-04-13T12:18:45.714Z,16.30
2023-04-13T12:21:17.117Z,17.10
2023-04-13T12:23:54.220Z,17.60
2023-04-13T12:28:58.298Z,17.00
2023-04-13T12:31:26.783Z,17.60
2023-04-13T12:33:55.195Z,18.00
2023-04-13T12:36:28.699Z,17.70
2023-04-13T12:38:57.577Z,18.40
2023-04-13T12:41:26.281Z,18.00
2023-04-13T12:43:54.849Z,17.70
2023-04-13T12:46:25.088Z,17.50
2023-04-13T12:48:54.102Z,17.30
2023-04-13T12:51:22.542Z,16.80
2023-04-13T12:53:52.243Z,17.10
2023-04-13T12:56:20.632Z,17.20
2023-04-13T12:58:49.675Z,17.50
2023-04-13T13:01:18.248Z,17.90
2023-04-13T13:03:46.795Z,18.30
2023-04-13T13:06:15.201Z,18.20
2023-04-13T13:08:43.629Z,18.40
2023-04-13T13:11:13.977Z,18.40
2023-04-13T13:13:42.304Z,18.60
2023-04-13T13:16:11.007Z,18.80
2023-04-13T13:18:50.267Z,18.30
2023-04-13T13:21:20.132Z,18.00
2023-04-13T13:23:48.511Z,18.30
2023-04-13T13:28:50.760Z,19.20
2023-04-13T13:31:19.521Z,18.70
2023-04-13T13:33:48.182Z,18.60
2023-04-13T13:36:16.599Z,19.00
2023-04-13T13:38:45.112Z,19.00
2023-04-13T13:41:13.985Z,18.70
2023-04-13T13:43:43.671Z,18.60
2023-04-13T13:46:12.136Z,18.60
2023-04-13T13:48:40.531Z,18.50
2023-04-13T13:51:08.880Z,18.60
2023-04-13T13:53:37.389Z,18.30
2023-04-13T13:56:06.049Z,18.00
2023-04-13T13:58:34.796Z,18.20
2023-04-13T14:01:05.591Z,18.60
2023-04-13T14:03:34.155Z,18.90
2023-04-13T14:06:02.816Z,18.90
2023-04-13T14:08:31.092Z,18.70
2023-04-13T14:11:00.954Z,19.00
2023-04-13T14:13:29.290Z,18.90
2023-04-13T14:15:57.898Z,19.20
2023-04-13T14:18:27.730Z,18.80
2023-04-13T14:20:56.743Z,17.90
2023-04-13T14:23:25.113Z,17.70
2023-04-13T14:25:53.449Z,17.10
2023-04-13T14:35:50.737Z,16.30
2023-04-13T14:38:19.086Z,17.50
2023-04-13T14:40:48.126Z,17.40
2023-04-13T14:45:45.144Z,16.70
2023-04-13T14:48:13.977Z,15.20
2023-04-13T14:50:42.367Z,14.90
2023-04-13T14:53:12.124Z,14.60
2023-04-13T14:55:40.746Z,14.60
2023-04-13T14:58:09.167Z,15.20
2023-04-13T15:00:40.250Z,15.20
2023-04-13T15:03:09.177Z,14.90
2023-04-13T15:05:39.329Z,14.70
2023-04-13T15:08:08.558Z,15.30
2023-04-13T15:10:39.727Z,15.10
2023-04-13T15:13:08.449Z,14.70
2023-04-13T15:15:41.414Z,14.40
2023-04-13T15:18:10.203Z,14.80
2023-04-13T15:20:38.593Z,15.50
2023-04-13T15:23:07.002Z,16.60
2023-04-13T15:25:37.555Z,17.20
2023-04-13T15:28:07.338Z,17.20
2023-04-13T15:30:35.777Z,17.00
2023-04-13T15:33:04.757Z,17.00
2023-04-13T15:35:35.921Z,16.90
2023-04-13T15:38:05.515Z,16.60
2023-04-13T15:40:38.045Z,16.20
2023-04-13T15:43:07.851Z,16.40
2023-04-13T15:45:36.365Z,15.70
2023-04-13T15:48:05.209Z,15.00
2023-04-13T15:50:34.700Z,14.70
2023-04-13T15:53:03.410Z,15.20
2023-04-13T15:55:31.783Z,15.70
2023-04-13T15:58:00.165Z,16.10
2023-04-13T16:00:30.757Z,16.50
2023-04-13T16:02:59.510Z,16.60
2023-04-13T16:05:29.444Z,16.80
2023-04-13T16:08:03.715Z,16.80
2023-04-13T16:10:32.028Z,16.40
2023-04-13T16:13:02.792Z,16.00
2023-04-13T16:15:33.357Z,15.10
2023-04-13T16:18:01.793Z,14.50
2023-04-13T16:20:33.803Z,14.30
2023-04-13T16:23:04.924Z,14.40
2023-04-13T16:25:34.463Z,14.30
2023-04-13T16:28:02.815Z,14.20
2023-04-13T16:30:34.883Z,14.40
2023-04-13T16:33:04.380Z,14.60
2023-04-13T16:35:34.022Z,14.70
2023-04-13T16:38:02.416Z,14.10
2023-04-13T16:40:30.906Z,13.60
2023-04-13T16:42:59.961Z,13.20
2023-04-13T16:45:28.282Z,12.90
2023-04-13T16:47:57.926Z,12.70
2023-04-13T16:50:31.953Z,12.40
2023-04-13T17:52:49.854Z,12.20
2023-04-13T17:55:19.805Z,10.60
2023-04-13T17:57:48.201Z,10.40
2023-04-13T18:00:17.334Z,10.30
2023-04-13T18:02:49.135Z,10.30
2023-04-13T18:05:18.450Z,10.30
2023-04-13T18:07:46.848Z,10.40
2023-04-13T18:10:15.192Z,10.40
2023-04-13T18:17:45.965Z,10.20
2023-04-13T18:20:14.456Z,9.50
2023-04-13T18:22:45.790Z,9.30
2023-04-13T18:25:14.184Z,9.10
2023-04-13T18:27:43.262Z,8.90
2023-04-13T18:30:15.832Z,8.70
2023-04-13T18:32:44.192Z,8.60
2023-04-13T18:35:14.899Z,8.40
2023-04-13T18:45:11.165Z,8.30
2023-04-13T18:47:40.951Z,8.00
2023-04-13T18:50:10.475Z,7.80
2023-04-13T18:52:38.784Z,7.70
2023-04-13T18:55:07.888Z,7.60
2023-04-13T18:57:38.999Z,7.40
2023-04-13T19:00:10.372Z,7.30
2023-04-13T19:02:42.254Z,7.30
2023-04-13T19:05:13.409Z,7.10
2023-04-13T19:10:11.860Z,6.90
2023-04-13T19:12:40.374Z,6.60
2023-04-13T19:15:09.393Z,6.60
2023-04-13T19:17:37.742Z,6.60
2023-04-13T19:20:10.436Z,6.60
2023-04-13T19:22:38.957Z,6.50
2023-04-13T19:25:14.219Z,6.40
2023-04-13T19:27:43.321Z,6.20
2023-04-13T19:30:12.903Z,6.00
2023-04-13T19:32:42.379Z,5.80
2023-04-13T19:35:12.754Z,5.80
2023-04-13T19:37:41.832Z,5.90
2023-04-13T19:40:13.861Z,5.70
2023-04-13T19:42:42.993Z,5.80
2023-04-13T19:45:12.042Z,5.70
2023-04-13T19:47:41.197Z,5.70
2023-04-13T19:50:13.934Z,5.50
2023-04-13T19:52:43.222Z,5.40
2023-04-13T19:55:12.135Z,5.50
2023-04-13T19:57:42.925Z,5.50
2023-04-13T20:00:19.242Z,5.60
2023-04-13T20:02:49.800Z,5.50
2023-04-13T20:05:21.125Z,5.60
2023-04-13T20:07:49.877Z,5.40
2023-04-13T20:10:18.434Z,5.40
2023-04-13T20:12:47.199Z,5.40
2023-04-13T20:15:15.999Z,5.60
2023-04-13T20:17:44.406Z,5.80
2023-04-13T20:20:13.525Z,5.90
2023-04-13T20:22:43.205Z,6.00
2023-04-13T20:25:11.593Z,6.10
2023-04-13T20:27:42.119Z,6.10
2023-04-13T20:30:11.801Z,6.30
2023-04-13T20:32:40.457Z,6.30
2023-04-13T20:35:09.858Z,6.40
2023-04-13T20:37:38.352Z,6.30
2023-04-13T20:40:11.422Z,6.20
2023-04-13T20:42:41.920Z,6.10
2023-04-13T20:45:12.818Z,6.10
2023-04-13T20:47:43.558Z,6.10
2023-04-13T20:50:13.348Z,6.10
2023-04-13T20:52:43.341Z,6.20
2023-04-13T20:55:13.199Z,6.30
2023-04-13T20:57:42.375Z,6.20
2023-04-13T21:00:15.458Z,6.20
2023-04-13T21:02:47.020Z,6.20
2023-04-13T21:05:15.865Z,6.30
2023-04-13T21:07:45.372Z,6.30
2023-04-13T21:10:15.676Z,6.30
2023-04-13T21:12:44.207Z,6.30
2023-04-13T21:15:13.095Z,6.30
2023-04-13T21:17:41.665Z,6.20
2023-04-13T21:20:11.214Z,6.20
2023-04-13T21:22:39.658Z,6.10
2023-04-13T21:25:08.681Z,6.00
2023-04-13T21:27:38.341Z,6.00
2023-04-13T21:30:08.431Z,5.80
2023-04-13T21:32:36.801Z,5.70
2023-04-13T21:35:05.503Z,5.60
2023-04-13T21:37:34.376Z,5.50
2023-04-13T21:40:02.873Z,5.30
2023-04-13T21:42:33.419Z,5.20
2023-04-13T21:45:03.344Z,5.20
2023-04-13T21:47:34.070Z,5.10
2023-04-13T21:50:02.754Z,5.20
2023-04-13T21:52:30.728Z,5.10
2023-04-13T21:55:00.313Z,5.10
2023-04-13T21:57:28.735Z,5.00
2023-04-13T21:59:57.489Z,5.00
2023-04-13T22:02:27.373Z,4.90
2023-04-13T22:04:58.291Z,5.00
2023-04-13T22:07:41.176Z,5.00
2023-04-13T22:10:12.110Z,5.00
2023-04-13T22:12:40.560Z,5.10
2023-04-13T22:15:09.676Z,5.00
2023-04-13T22:17:39.489Z,5.00
2023-04-13T22:20:09.365Z,5.00
2023-04-13T22:22:37.796Z,5.10
2023-04-13T22:25:07.064Z,5.20
2023-04-13T22:27:37.645Z,5.20
2023-04-13T22:30:07.460Z,5.20
2023-04-13T22:32:36.286Z,5.10
2023-04-13T22:35:06.758Z,5.00
2023-04-13T22:37:35.667Z,4.90
2023-04-13T22:40:04.383Z,5.00
2023-04-13T22:42:32.660Z,5.00
2023-04-13T22:45:01.039Z,5.20
2023-04-13T22:47:29.371Z,5.30
2023-04-13T22:50:00.099Z,5.20
2023-04-13T22:52:30.137Z,5.20
2023-04-13T22:54:58.567Z,5.10
2023-04-13T22:57:27.008Z,5.20
2023-04-13T22:59:55.460Z,5.10
2023-04-13T23:02:23.949Z,5.10
2023-04-13T23:04:52.445Z,5.10
2023-04-13T23:07:20.853Z,5.10
2023-04-13T23:09:53.824Z,5.10
2023-04-13T23:12:22.427Z,5.20
2023-04-13T23:14:53.217Z,5.20
2023-04-13T23:17:21.690Z,5.10
2023-04-13T23:19:50.072Z,5.10
2023-04-13T23:22:19.448Z,5.00
2023-04-13T23:24:47.842Z,4.90
2023-04-13T23:27:17.684Z,4.80
2023-04-13T23:29:50.192Z,4.80
2023-04-13T23:32:18.875Z,4.80
2023-04-13T23:34:47.428Z,4.70
2023-04-13T23:37:15.989Z,4.70
2023-04-13T23:39:44.393Z,4.70
2023-04-13T23:42:13.133Z,4.80
2023-04-13T23:44:42.873Z,4.80
2023-04-13T23:47:13.501Z,4.80
2023-04-13T23:49:42.331Z,4.90
2023-04-13T23:52:10.793Z,5.00
2023-04-13T23:54:39.112Z,5.10
2023-04-13T23:57:07.434Z,5.10
2023-04-13T23:59:36.818Z,5.20
